Aleppo, Pennsylvania
Current Conditions -  °F | °C
As of 11:15 AM on Monday 24 Nov 2014 (Local Time) from KAFJ Reporting Station
Broken Clouds Broken Clouds  
Wind Chill: 68°   Ceiling: 7500
Heat Index: 68°   Visibility: 10mi
Dew Point: 45°   Wind: 22mph
Humidity: 43%   Direction: 210°SSW
Pressure: 29.45"   Gusts: 35mph
Location:  39.82°N, 80.45°W
Report Text: KAFJ 241615Z 21019G30KT 10SM FEW060 BKN075 20/07 A2945 RMK AO1
Loading
Personal Weather Stations






























Interactive Weather Map New forecast layout! Learn more

10-Day Weather Forecast

Advertisements
Track Severe Weather on mobile